Passmore, Pennsylvania
Current Conditions -  °F | °C
As of 6:54 PM on Saturday 25 Oct 2014 (Local Time) from KPTW Reporting Station
Overcast Overcast  
Wind Chill: 64°   Ceiling: 6500
Heat Index: 64°   Visibility: 10mi
Dew Point: 43°   Wind: 3mph
Humidity: 46%   Direction: 210°SSW
Pressure: 29.68"   Gusts: NA
Location:  40.3927°N, 75.6313°W
Report Text: KPTW 252254Z AUTO 21003KT 10SM OVC065 18/06 A2968 RMK AO2 SLP050 T01780061
Loading
Personal Weather Stations






























Interactive Weather Map
Tropical Storm Tracking
New forecast layout! Learn more

10-Day Weather Forecast

Advertisements
Track Severe Weather on mobile